Time;durP1;ratioP1;P1;durP2;ratioP2;P2;SDS_P1;SDS_P2;PMS_P1;PMS_P2;Temp;Humidity;BMP_temperature;BMP_pressure;BME280_temperature;BME280_humidity;BME280_pressure;Samples;Min_cycle;Max_cycle;Signal;HPM_P1;HPM_P2
2022/01/02 00:01:27;;;;;;;2.20;2.00;;;2.00;98.20;;;;;;5051136;28;20254;-71
2022/01/02 00:04:05;;;;;;;3.53;3.22;;;1.90;97.20;;;;;;5049127;28;20214;-73
2022/01/02 00:06:53;;;;;;;3.28;2.97;;;2.00;97.30;;;;;;5043838;28;20209;-73
2022/01/02 00:09:33;;;;;;;4.25;3.40;;;1.90;98.20;;;;;;5046952;28;20704;-72
2022/01/02 00:12:13;;;;;;;4.07;2.75;;;1.70;98.30;;;;;;5042652;28;20226;-73
2022/01/02 00:14:47;;;;;;;2.60;2.40;;;1.60;98.10;;;;;;5044091;28;20218;-72
2022/01/02 00:17:23;;;;;;;5.88;3.13;;;1.70;98.20;;;;;;5048358;28;20217;-71
2022/01/02 00:19:57;;;;;;;2.90;2.50;;;1.60;99.90;;;;;;5047453;28;20308;-70
2022/01/02 00:22:35;;;;;;;3.55;2.53;;;1.50;99.90;;;;;;5049879;28;20225;-71
2022/01/02 00:25:14;;;;;;;2.65;2.33;;;1.40;99.90;;;;;;5032920;28;21216;-71
2022/01/02 00:27:48;;;;;;;2.58;2.20;;;1.40;99.90;;;;;;5048782;28;20304;-72
2022/01/02 00:30:23;;;;;;;3.35;2.60;;;1.40;99.90;;;;;;5051316;28;20638;-72
2022/01/02 00:32:55;;;;;;;3.67;3.20;;;1.30;99.90;;;;;;5049884;28;20228;-71
2022/01/02 00:35:31;;;;;;;4.40;4.00;;;1.30;99.90;;;;;;5048300;28;20210;-73
2022/01/02 00:38:06;;;;;;;3.70;3.22;;;1.40;99.90;;;;;;5048348;28;20232;-72
2022/01/02 00:40:46;;;;;;;4.00;3.55;;;1.30;99.90;;;;;;5049882;28;20209;-72
2022/01/02 00:43:23;;;;;;;8.93;4.85;;;1.20;99.90;;;;;;5047724;28;20251;-74
2022/01/02 00:45:57;;;;;;;7.20;5.55;;;1.00;99.90;;;;;;5049831;28;20229;-72
2022/01/02 00:48:32;;;;;;;6.22;5.20;;;0.90;99.90;;;;;;5043249;28;20214;-75
2022/01/02 00:51:07;;;;;;;10.50;6.63;;;1.00;99.90;;;;;;5045147;28;20693;-71
2022/01/02 00:53:45;;;;;;;5.93;5.32;;;1.10;99.90;;;;;;5046857;28;20234;-73
2022/01/02 00:56:31;;;;;;;6.85;5.30;;;1.10;99.90;;;;;;5044300;28;20217;-72
2022/01/02 00:59:09;;;;;;;10.88;7.68;;;1.10;99.90;;;;;;5046091;28;20292;-72
2022/01/02 01:01:45;;;;;;;12.40;10.05;;;1.00;99.90;;;;;;5051809;28;20257;-76
2022/01/02 01:04:22;;;;;;;9.13;7.13;;;1.00;99.90;;;;;;5046068;28;20295;-77
2022/01/02 01:07:03;;;;;;;7.32;6.32;;;0.80;99.90;;;;;;5062687;28;20225;-70
2022/01/02 01:09:42;;;;;;;8.23;7.43;;;0.70;99.90;;;;;;5054236;28;20658;-73
2022/01/02 01:20:51;;;;;;;6.95;6.20;;;0.80;99.90;;;;;;5019146;28;20220;-75
2022/01/02 01:24:12;;;;;;;8.98;7.25;;;0.60;99.90;;;;;;5051609;28;20240;-76
2022/01/02 01:27:09;;;;;;;10.57;8.48;;;0.60;99.90;;;;;;5048233;28;20519;-76
2022/01/02 01:30:38;;;;;;;11.52;6.60;;;0.60;99.90;;;;;;5049682;28;20221;-75
2022/01/02 01:38:11;;;;;;;6.85;5.00;;;0.50;99.90;;;;;;5052927;28;20287;-75
2022/01/02 01:49:29;;;;;;;3.58;3.00;;;0.50;99.90;;;;;;5016880;28;20214;-70
2022/01/02 01:55:23;;;;;;;5.10;3.20;;;0.40;99.90;;;;;;5023661;28;20249;-75
2022/01/02 01:57:59;;;;;;;3.67;3.15;;;0.40;99.90;;;;;;5028124;28;20226;-78
2022/01/02 02:17:22;;;;;;;6.47;3.28;;;0.40;99.90;;;;;;5006051;28;20376;-77
2022/01/02 02:24:42;;;;;;;4.85;3.78;;;0.40;99.90;;;;;;4955291;28;20324;-75
2022/01/02 02:27:14;;;;;;;4.10;3.65;;;0.50;99.90;;;;;;5032510;28;20216;-68
2022/01/02 02:30:04;;;;;;;5.72;4.28;;;0.50;99.90;;;;;;5026868;28;20230;-72
2022/01/02 02:33:28;;;;;;;5.38;3.45;;;0.50;99.90;;;;;;4979593;28;20690;-77
2022/01/02 02:40:35;;;;;;;8.02;3.50;;;0.50;99.90;;;;;;4987854;28;20278;-75
2022/01/02 02:43:22;;;;;;;3.95;3.45;;;0.60;99.90;;;;;;5028070;28;20272;-72
2022/01/02 02:51:39;;;;;;;5.28;4.32;;;0.60;99.90;;;;;;5031444;28;20226;-71
2022/01/02 02:54:23;;;;;;;5.55;3.40;;;0.60;99.90;;;;;;5031583;28;20229;-74
2022/01/02 02:56:59;;;;;;;6.13;4.25;;;0.60;99.90;;;;;;5030421;28;20614;-69
2022/01/02 03:00:20;;;;;;;5.28;3.95;;;0.50;99.90;;;;;;4997111;28;20294;-74
2022/01/02 03:07:38;;;;;;;4.00;3.30;;;0.50;99.90;;;;;;5016516;28;20604;-77
2022/01/02 03:10:31;;;;;;;7.85;4.13;;;0.40;99.90;;;;;;4996122;28;20229;-76
2022/01/02 03:13:08;;;;;;;5.93;4.70;;;0.40;99.90;;;;;;5027156;28;20313;-75
2022/01/02 03:19:55;;;;;;;6.68;4.82;;;0.40;99.90;;;;;;5012451;28;20221;-72
2022/01/02 03:22:27;;;;;;;5.03;4.57;;;0.40;99.90;;;;;;5029029;28;20214;-69
2022/01/02 03:24:59;;;;;;;5.60;5.10;;;0.40;99.90;;;;;;5030675;28;20241;-71
2022/01/02 03:27:32;;;;;;;6.82;5.90;;;0.50;99.90;;;;;;5049015;28;20280;-72
2022/01/02 03:30:06;;;;;;;8.45;5.70;;;0.50;99.90;;;;;;5042119;28;20236;-68
2022/01/02 03:32:39;;;;;;;5.65;5.18;;;0.70;99.90;;;;;;5046730;28;20221;-68
2022/01/02 03:35:12;;;;;;;6.28;5.25;;;0.70;99.90;;;;;;5045569;28;20214;-73
2022/01/02 03:37:45;;;;;;;7.75;5.80;;;0.70;99.90;;;;;;5046007;28;20299;-68
2022/01/02 03:40:17;;;;;;;7.80;5.75;;;0.60;99.90;;;;;;5046168;28;20319;-74
2022/01/02 04:13:51;;;;;;;7.15;6.55;;;0.30;99.90;;;;;;5050193;28;20246;-80
2022/01/02 04:24:50;;;;;;;9.60;7.20;;;0.20;99.90;;;;;;5045633;28;20270;-84
2022/01/02 04:46:05;;;;;;;;;;;;;;;;;;;;;
2022/01/02 04:54:03;;;;;;;10.30;8.70;;;0.10;99.90;;;;;;4861627;29;20698;-77
2022/01/02 04:57:50;;;;;;;;;;;;;;;;;;;;;
2022/01/02 05:10:36;;;;;;;9.60;8.55;;;0.00;99.90;;;;;;4871605;29;20651;-76
2022/01/02 05:22:19;;;;;;;9.52;8.63;;;0.40;99.90;;;;;;4893616;29;20207;-75
2022/01/02 06:10:12;;;;;;;23.33;16.63;;;0.60;99.90;;;;;;4998185;28;20719;-81
2022/01/02 10:57:57;;;;;;;2.90;2.70;;;0.80;99.90;;;;;;5014470;28;20256;-79
2022/01/02 11:00:30;;;;;;;5.03;4.50;;;0.80;99.90;;;;;;4979413;28;20230;-71
2022/01/02 11:03:02;;;;;;;5.65;4.65;;;0.80;99.90;;;;;;4982932;28;20254;-70
2022/01/02 11:09:55;;;;;;;3.95;3.40;;;0.70;99.90;;;;;;4990232;28;20562;-72
2022/01/02 11:12:38;;;;;;;34.88;24.50;;;0.80;99.90;;;;;;5013169;28;20242;-76
2022/01/02 11:15:12;;;;;;;3.15;2.92;;;0.80;99.90;;;;;;5009819;28;20243;-71
2022/01/02 11:21:38;;;;;;;21.50;18.63;;;0.80;99.90;;;;;;5009462;28;20222;-71
2022/01/02 11:24:28;;;;;;;10.00;9.00;;;0.80;99.90;;;;;;5014001;28;20289;-71
2022/01/02 11:27:12;;;;;;;2.40;2.20;;;0.80;99.90;;;;;;5013794;28;20289;-71
2022/01/02 11:29:44;;;;;;;3.10;2.60;;;0.80;99.90;;;;;;5016584;28;20228;-70
2022/01/02 11:32:31;;;;;;;2.58;2.30;;;0.70;99.90;;;;;;5002598;28;20328;-71
2022/01/02 11:35:28;;;;;;;4.50;3.85;;;0.70;99.90;;;;;;5014647;28;20279;-72
2022/01/02 11:41:46;;;;;;;2.30;2.10;;;0.60;99.90;;;;;;4994653;28;20233;-73
2022/01/02 11:44:18;;;;;;;5.63;5.13;;;0.60;99.90;;;;;;5009565;28;20231;-71
2022/01/02 11:46:52;;;;;;;8.45;7.13;;;0.60;99.90;;;;;;5011325;28;20220;-70
2022/01/02 11:49:29;;;;;;;3.42;3.13;;;0.60;99.90;;;;;;5015696;28;20226;-72
2022/01/02 11:52:34;;;;;;;3.67;3.30;;;0.60;99.90;;;;;;5009925;28;20691;-72
2022/01/02 11:55:18;;;;;;;2.78;2.53;;;0.70;99.90;;;;;;5009951;28;20240;-71
2022/01/02 11:57:59;;;;;;;3.40;3.10;;;0.80;99.90;;;;;;5015068;28;20227;-79
2022/01/02 12:00:48;;;;;;;19.23;11.55;;;0.60;99.90;;;;;;5000614;28;20992;-71
2022/01/02 12:03:58;;;;;;;13.65;8.70;;;0.50;99.90;;;;;;5007922;28;20223;-70
2022/01/02 12:06:38;;;;;;;15.82;10.95;;;0.50;99.90;;;;;;5008429;28;20237;-73
2022/01/02 12:09:36;;;;;;;8.48;3.95;;;0.40;99.90;;;;;;4999403;28;20297;-72
2022/01/02 12:12:11;;;;;;;4.30;2.72;;;0.40;99.90;;;;;;5009384;28;20254;-74
2022/01/02 12:15:02;;;;;;;6.22;4.07;;;0.50;99.90;;;;;;5006245;28;20236;-72
2022/01/02 12:18:07;;;;;;;3.72;3.30;;;0.50;99.90;;;;;;5012501;28;20272;-72
2022/01/02 12:21:11;;;;;;;18.27;8.05;;;0.50;99.90;;;;;;5010436;28;20229;-70
2022/01/02 12:23:54;;;;;;;19.48;12.20;;;0.50;99.90;;;;;;5003733;28;20237;-72
2022/01/02 12:26:46;;;;;;;4.13;3.28;;;0.40;99.90;;;;;;5010253;28;20356;-71
2022/01/02 12:33:44;;;;;;;3.45;3.15;;;0.60;99.90;;;;;;5004304;28;20309;-72
2022/01/02 13:16:50;;;;;;;3.50;2.65;;;0.70;99.90;;;;;;5034261;28;20228;-71
2022/01/02 13:22:56;;;;;;;3.25;2.97;;;0.90;99.90;;;;;;5042884;28;20226;-74
2022/01/02 13:45:21;;;;;;;3.00;2.70;;;1.20;99.90;;;;;;5012970;28;20248;-73
2022/01/02 13:48:16;;;;;;;2.95;2.75;;;1.20;99.90;;;;;;5031727;28;20207;-73
2022/01/02 13:54:17;;;;;;;2.85;2.65;;;1.20;99.90;;;;;;5014526;28;20222;-70
2022/01/02 14:07:51;;;;;;;3.47;3.05;;;1.30;99.90;;;;;;5027962;28;20225;-73
2022/01/02 14:10:39;;;;;;;3.15;2.63;;;1.30;99.90;;;;;;5032474;28;20309;-80
2022/01/02 14:13:17;;;;;;;3.78;3.20;;;1.30;99.90;;;;;;5033834;28;20321;-73
2022/01/02 14:16:06;;;;;;;3.67;2.50;;;1.30;99.90;;;;;;5032111;28;20293;-75
2022/01/02 14:18:37;;;;;;;3.80;2.60;;;1.40;99.90;;;;;;5031816;28;20691;-72
2022/01/02 14:21:09;;;;;;;3.10;2.90;;;1.40;99.90;;;;;;5031648;28;20402;-75
2022/01/02 14:24:00;;;;;;;2.90;2.65;;;1.40;99.90;;;;;;5028730;28;20289;-73
2022/01/02 14:29:55;;;;;;;4.32;2.75;;;1.50;99.90;;;;;;5030177;28;20233;-76
2022/01/02 14:32:50;;;;;;;3.67;3.38;;;1.50;99.90;;;;;;5022525;28;20328;-70
2022/01/02 14:35:36;;;;;;;3.83;3.10;;;1.50;99.90;;;;;;5017356;28;20687;-72
2022/01/02 14:42:55;;;;;;;3.20;2.90;;;1.50;99.90;;;;;;4950609;28;20767;-85
2022/01/02 14:52:49;;;;;;;3.45;3.15;;;1.50;99.90;;;;;;5024372;28;20299;-76
2022/01/02 15:04:02;;;;;;;2.92;2.60;;;1.40;99.90;;;;;;4972484;28;20371;-73
2022/01/02 15:10:25;;;;;;;2.70;2.50;;;1.30;99.90;;;;;;5028890;28;20226;-70
2022/01/02 15:12:59;;;;;;;3.47;2.47;;;1.50;99.90;;;;;;5038614;28;20261;-70
2022/01/02 15:15:37;;;;;;;3.63;2.72;;;1.20;99.90;;;;;;5031587;28;20357;-69
2022/01/02 15:18:39;;;;;;;2.80;2.58;;;1.10;99.90;;;;;;5030476;28;20285;-71
2022/01/02 15:21:18;;;;;;;3.33;2.95;;;1.10;99.90;;;;;;5029063;28;20225;-71
2022/01/02 15:23:54;;;;;;;3.88;2.85;;;1.20;99.90;;;;;;5029205;28;20245;-72
2022/01/02 15:26:37;;;;;;;3.35;2.97;;;1.20;99.90;;;;;;5029515;28;20226;-75
2022/01/02 15:29:17;;;;;;;2.83;2.53;;;1.20;99.90;;;;;;5031207;28;20296;-71
2022/01/02 15:31:52;;;;;;;4.07;2.65;;;1.20;99.90;;;;;;5028171;28;20226;-75
2022/01/02 15:34:23;;;;;;;4.47;3.88;;;1.20;99.90;;;;;;5029828;28;20304;-71
2022/01/02 15:36:54;;;;;;;2.47;2.28;;;1.00;99.90;;;;;;5027539;28;20218;-72
2022/01/02 15:39:29;;;;;;;3.35;3.10;;;1.00;99.90;;;;;;5005245;28;20380;-71
2022/01/02 15:58:58;;;;;;;5.63;3.08;;;1.20;99.90;;;;;;4960131;28;20476;-71
2022/01/02 16:01:29;;;;;;;3.90;3.22;;;1.00;99.90;;;;;;5031501;28;20240;-70
2022/01/02 16:04:01;;;;;;;3.35;3.15;;;1.00;99.90;;;;;;5019029;28;20248;-74
2022/01/02 16:06:34;;;;;;;3.22;2.72;;;1.00;99.90;;;;;;5028175;28;20256;-71
2022/01/02 16:09:33;;;;;;;3.72;2.55;;;1.00;99.90;;;;;;5010779;28;20261;-72
2022/01/02 16:12:10;;;;;;;5.20;2.72;;;0.90;99.90;;;;;;5033164;28;20221;-70
2022/01/02 16:17:43;;;;;;;4.10;2.83;;;1.10;99.90;;;;;;5031114;28;20214;-71
2022/01/02 16:20:19;;;;;;;4.20;3.60;;;1.20;99.90;;;;;;5030153;28;20250;-72
2022/01/02 16:22:57;;;;;;;3.75;3.33;;;1.20;99.90;;;;;;5026127;28;20230;-71
2022/01/02 16:26:13;;;;;;;5.25;3.70;;;1.30;99.90;;;;;;5032607;28;20397;-71
2022/01/02 16:32:14;;;;;;;3.92;3.30;;;1.40;99.90;;;;;;5026673;28;20680;-73
2022/01/02 16:35:42;;;;;;;4.38;3.67;;;1.50;99.90;;;;;;5033742;28;20214;-82
2022/01/02 16:38:42;;;;;;;3.42;3.13;;;1.60;99.90;;;;;;5022276;28;20229;-72
2022/01/02 16:41:16;;;;;;;5.68;3.47;;;1.70;99.90;;;;;;5033458;28;20288;-70
2022/01/02 16:43:58;;;;;;;3.67;3.08;;;1.70;99.90;;;;;;5032720;28;20240;-74
2022/01/02 16:46:40;;;;;;;3.78;3.33;;;1.90;99.90;;;;;;5024331;28;20225;-71
2022/01/02 16:49:13;;;;;;;3.72;2.78;;;1.90;99.90;;;;;;5019079;28;20618;-71
2022/01/02 16:51:53;;;;;;;4.45;3.05;;;2.00;99.90;;;;;;5027043;28;20312;-73
2022/01/02 16:54:26;;;;;;;4.57;3.45;;;2.10;99.90;;;;;;5022510;28;20826;-74
2022/01/02 16:56:57;;;;;;;4.43;3.63;;;2.10;99.90;;;;;;5026373;28;20260;-73
2022/01/02 16:59:28;;;;;;;4.32;3.42;;;2.10;99.90;;;;;;5025193;28;20328;-71
2022/01/02 17:02:00;;;;;;;4.43;3.53;;;2.10;99.90;;;;;;5026667;28;20261;-70
2022/01/02 17:04:33;;;;;;;3.92;3.10;;;2.00;99.90;;;;;;5026279;28;20218;-70
2022/01/02 17:07:05;;;;;;;4.07;3.67;;;2.00;99.90;;;;;;5021456;28;20578;-74
2022/01/02 17:09:38;;;;;;;5.03;3.55;;;2.00;99.90;;;;;;5021839;28;20230;-72
2022/01/02 17:12:09;;;;;;;4.82;3.67;;;2.00;99.90;;;;;;5027367;28;20558;-71
2022/01/02 17:14:41;;;;;;;4.05;3.47;;;2.00;99.90;;;;;;5028598;28;20359;-71
2022/01/02 17:17:12;;;;;;;4.22;3.78;;;2.10;99.90;;;;;;5025508;28;20214;-71
2022/01/02 17:19:46;;;;;;;4.85;4.25;;;2.00;99.90;;;;;;5033456;28;20217;-71
2022/01/02 17:22:17;;;;;;;5.35;3.78;;;2.10;99.90;;;;;;5026013;28;20660;-70
2022/01/02 17:24:48;;;;;;;5.13;3.90;;;2.20;99.90;;;;;;5026740;28;20764;-71
2022/01/02 17:27:19;;;;;;;3.65;2.97;;;2.20;99.90;;;;;;5017952;28;20695;-70
2022/01/02 17:29:50;;;;;;;4.18;3.60;;;2.10;99.90;;;;;;5026452;28;20225;-72
2022/01/02 17:32:22;;;;;;;5.07;3.72;;;2.20;99.90;;;;;;5022260;28;20235;-74
2022/01/02 17:44:12;;;;;;;4.50;3.90;;;2.50;99.90;;;;;;4959009;28;20368;-78
2022/01/02 17:59:43;;;;;;;3.90;3.40;;;2.70;99.90;;;;;;4988203;28;20269;-71
2022/01/02 18:03:07;;;;;;;4.95;3.42;;;2.70;99.90;;;;;;5024903;28;20272;-73
2022/01/02 18:09:17;;;;;;;3.67;3.28;;;2.90;99.90;;;;;;5020448;28;20320;-72
2022/01/02 18:15:14;;;;;;;4.22;3.42;;;3.20;99.90;;;;;;5032098;28;20244;-75
2022/01/02 18:18:50;;;;;;;3.85;3.30;;;3.30;99.90;;;;;;5030209;28;20217;-74
2022/01/02 18:21:52;;;;;;;4.07;3.38;;;3.50;99.90;;;;;;5026016;28;20317;-76
2022/01/02 18:24:26;;;;;;;3.90;3.55;;;3.50;99.90;;;;;;5031596;28;20221;-70
2022/01/02 18:26:57;;;;;;;5.30;4.00;;;3.70;99.90;;;;;;5036050;28;20228;-72
2022/01/02 18:33:13;;;;;;;4.38;3.97;;;3.70;99.90;;;;;;5026516;28;20219;-73
2022/01/02 18:39:37;;;;;;;4.82;3.75;;;3.70;99.90;;;;;;4982417;28;20627;-69
2022/01/02 18:42:13;;;;;;;6.15;4.13;;;3.70;99.90;;;;;;5031119;28;20350;-71
2022/01/02 18:56:21;;;;;;;4.30;3.90;;;3.80;99.90;;;;;;5030845;28;20724;-72
2022/01/02 18:58:58;;;;;;;5.15;4.65;;;3.80;99.90;;;;;;5026751;28;20222;-68
2022/01/02 19:01:43;;;;;;;7.07;4.47;;;3.80;99.90;;;;;;5024329;28;20274;-70
2022/01/02 19:08:20;;;;;;;6.05;4.65;;;3.70;99.90;;;;;;4996960;28;20591;-73
2022/01/02 19:11:09;;;;;;;3.90;3.60;;;3.80;99.90;;;;;;4997791;28;20260;-73
2022/01/02 19:13:46;;;;;;;5.85;4.50;;;4.00;99.90;;;;;;5020376;28;20243;-73
2022/01/02 19:16:21;;;;;;;4.85;3.88;;;4.20;99.90;;;;;;5004900;28;20239;-72
2022/01/02 19:18:57;;;;;;;6.80;4.50;;;4.30;99.90;;;;;;5004924;28;20302;-72
2022/01/02 19:25:04;;;;;;;4.03;3.67;;;4.30;99.90;;;;;;5016249;28;20285;-73
2022/01/02 19:30:50;;;;;;;3.85;3.50;;;4.00;99.90;;;;;;4999539;28;20655;-74
2022/01/02 19:33:21;;;;;;;5.10;4.63;;;4.00;99.90;;;;;;5020036;28;20228;-71
2022/01/02 19:35:53;;;;;;;5.88;4.00;;;3.90;99.90;;;;;;5019300;28;20261;-72
2022/01/02 20:04:28;;;;;;;3.75;3.45;;;4.30;99.90;;;;;;5032935;28;20248;-74
2022/01/02 20:15:09;;;;;;;5.53;3.40;;;4.60;99.90;;;;;;5000002;28;20979;-80
2022/01/02 20:18:36;;;;;;;4.80;4.30;;;4.60;99.90;;;;;;5000652;28;20223;-78
2022/01/02 20:21:48;;;;;;;4.35;3.85;;;4.50;99.90;;;;;;5004444;28;20241;-74
2022/01/02 20:28:10;;;;;;;4.78;3.78;;;4.80;99.90;;;;;;5003874;28;20574;-73
2022/01/02 20:33:43;;;;;;;4.30;3.38;;;4.70;99.90;;;;;;5007337;28;20226;-71
2022/01/02 20:36:18;;;;;;;5.10;3.78;;;4.70;99.90;;;;;;5010473;28;20227;-74
2022/01/02 20:42:24;;;;;;;5.07;3.65;;;5.00;99.90;;;;;;5004194;28;20223;-72
2022/01/02 20:45:53;;;;;;;4.63;4.10;;;5.00;99.70;;;;;;5002435;28;20254;-73
2022/01/02 20:48:29;;;;;;;4.30;3.90;;;4.90;99.90;;;;;;5002407;28;20239;-73
2022/01/02 20:51:07;;;;;;;9.57;4.40;;;5.00;99.90;;;;;;5010585;28;20257;-73
2022/01/02 20:57:02;;;;;;;4.38;3.55;;;5.10;99.90;;;;;;5010160;28;20246;-72
2022/01/02 21:03:09;;;;;;;7.68;4.40;;;5.20;99.90;;;;;;5012780;28;20337;-72
2022/01/02 21:09:32;;;;;;;5.30;3.65;;;5.60;99.90;;;;;;5020334;28;20230;-73
2022/01/02 21:12:33;;;;;;;7.78;3.90;;;5.80;99.90;;;;;;5034601;28;20222;-72
2022/01/02 21:15:05;;;;;;;6.35;4.78;;;5.90;99.90;;;;;;5025762;28;20261;-72
2022/01/02 21:18:03;;;;;;;6.68;4.43;;;6.20;99.90;;;;;;5022426;28;20225;-73
2022/01/02 21:46:28;;;;;;;5.13;2.97;;;7.90;99.90;;;;;;5034236;28;20708;-74
2022/01/02 21:49:00;;;;;;;3.28;2.60;;;8.20;99.60;;;;;;5016161;28;20257;-72
2022/01/02 21:51:34;;;;;;;3.53;3.22;;;8.30;99.90;;;;;;5029151;28;20252;-72
2022/01/02 21:54:09;;;;;;;3.97;3.00;;;8.40;99.90;;;;;;5028410;28;20263;-72
2022/01/02 21:56:40;;;;;;;4.13;3.70;;;8.50;99.70;;;;;;5028258;28;20645;-71
2022/01/02 21:59:19;;;;;;;3.85;3.10;;;8.60;99.70;;;;;;5032107;28;20214;-74
2022/01/02 22:01:54;;;;;;;4.72;3.97;;;8.80;99.60;;;;;;5028100;28;20224;-74
2022/01/02 22:04:28;;;;;;;5.63;4.82;;;8.80;99.90;;;;;;5025199;28;20345;-74
2022/01/02 22:06:59;;;;;;;9.55;4.47;;;8.70;99.90;;;;;;5012003;28;20229;-70
2022/01/02 22:09:31;;;;;;;5.07;3.85;;;8.70;99.90;;;;;;5006668;28;20229;-75
2022/01/02 22:12:03;;;;;;;5.85;4.35;;;8.70;99.90;;;;;;5012959;28;20265;-69
2022/01/02 22:14:34;;;;;;;4.70;4.00;;;8.80;99.90;;;;;;5013191;28;20215;-72
2022/01/02 22:17:08;;;;;;;4.72;4.20;;;8.90;99.90;;;;;;5012558;28;20253;-69
2022/01/02 22:19:39;;;;;;;3.67;3.00;;;8.90;99.90;;;;;;5010285;28;20223;-68
2022/01/02 22:22:12;;;;;;;5.53;3.55;;;9.00;99.90;;;;;;5016019;28;20473;-69
2022/01/02 22:24:45;;;;;;;5.18;3.50;;;9.10;99.90;;;;;;5018130;28;20219;-68
2022/01/02 22:27:16;;;;;;;7.63;3.90;;;9.10;99.90;;;;;;5013616;28;20222;-69
2022/01/02 22:29:48;;;;;;;3.20;2.90;;;9.10;99.90;;;;;;5016961;28;20556;-70
2022/01/02 22:32:21;;;;;;;4.22;3.72;;;9.20;99.90;;;;;;5008108;28;20458;-69
2022/01/02 22:34:56;;;;;;;4.43;3.67;;;9.30;99.90;;;;;;5016612;28;20242;-68
2022/01/02 22:37:27;;;;;;;4.80;3.60;;;9.30;99.90;;;;;;5009810;28;20222;-68
2022/01/02 22:39:58;;;;;;;3.40;3.10;;;9.30;99.90;;;;;;5009063;28;20466;-68
2022/01/02 22:42:29;;;;;;;4.18;2.85;;;9.40;99.90;;;;;;5019009;28;20940;-68
2022/01/02 22:45:02;;;;;;;3.53;2.78;;;9.40;99.90;;;;;;5008661;28;20215;-72
2022/01/02 22:47:37;;;;;;;3.33;2.75;;;9.30;99.90;;;;;;5005587;28;20223;-71
2022/01/02 22:50:10;;;;;;;3.58;2.50;;;9.20;99.90;;;;;;4993939;28;20254;-71
2022/01/02 22:52:42;;;;;;;5.17;2.80;;;9.20;99.90;;;;;;5009634;28;20630;-69
2022/01/02 22:55:15;;;;;;;3.20;2.93;;;9.20;99.90;;;;;;5013263;28;20604;-70
2022/01/02 22:57:48;;;;;;;3.10;2.80;;;9.20;99.90;;;;;;5013457;28;20543;-71
2022/01/02 23:00:44;;;;;;;4.68;2.80;;;9.20;99.90;;;;;;5009397;28;20794;-73
2022/01/02 23:03:23;;;;;;;2.95;2.65;;;9.10;99.90;;;;;;5009163;28;20231;-71
2022/01/02 23:06:01;;;;;;;3.88;2.92;;;9.10;99.90;;;;;;5012450;28;20242;-72
2022/01/02 23:08:40;;;;;;;3.17;2.85;;;9.10;99.90;;;;;;5011131;28;20597;-73
2022/01/02 23:11:13;;;;;;;3.70;2.60;;;9.10;99.90;;;;;;5009997;28;20270;-75
2022/01/02 23:13:46;;;;;;;3.30;2.65;;;9.00;99.90;;;;;;5017312;28;20778;-69
2022/01/02 23:16:19;;;;;;;3.70;2.70;;;9.10;99.90;;;;;;5012455;28;20676;-69
2022/01/02 23:18:59;;;;;;;2.70;2.10;;;9.20;99.90;;;;;;5017850;28;20461;-71
2022/01/02 23:21:31;;;;;;;2.85;2.38;;;9.20;99.90;;;;;;5015826;28;20222;-74
2022/01/02 23:24:08;;;;;;;2.70;2.50;;;9.20;99.90;;;;;;4999702;28;20241;-71
2022/01/02 23:26:59;;;;;;;3.47;2.83;;;9.20;99.90;;;;;;5010246;28;20448;-74
2022/01/02 23:29:39;;;;;;;5.60;4.30;;;9.30;99.90;;;;;;5020639;28;20308;-73
2022/01/02 23:32:22;;;;;;;14.77;11.60;;;9.30;99.90;;;;;;5014978;28;20301;-79
2022/01/02 23:35:32;;;;;;;13.70;10.73;;;9.30;99.90;;;;;;5014065;28;20476;-78
2022/01/02 23:41:40;;;;;;;2.70;2.50;;;9.30;99.90;;;;;;5002827;28;20270;-78
2022/01/02 23:44:20;;;;;;;5.55;2.40;;;9.20;99.90;;;;;;5008153;28;20294;-71
2022/01/02 23:47:07;;;;;;;1.87;1.67;;;9.30;99.90;;;;;;5005733;28;20223;-75
2022/01/02 23:49:50;;;;;;;1.60;1.50;;;9.30;99.90;;;;;;5005219;28;20462;-75
2022/01/02 23:52:34;;;;;;;1.90;1.50;;;9.30;99.90;;;;;;5008459;28;20233;-72
2022/01/02 23:55:06;;;;;;;2.10;1.52;;;9.30;99.90;;;;;;5006848;28;20245;-70
2022/01/02 23:57:52;;;;;;;1.90;1.80;;;9.40;99.90;;;;;;5009631;28;20215;-70
